Kansas City, Missouri
Traffic Map
Current Weather Conditions
Kansas City, Missouri
Clear
Clear
24°
Feels Like: 24°
Wind Chill: 24° Ceiling: Unl
Heat Index: 24° Visibility: 10mi
Dew Point: 17° Wind: 13mph
Humidity: 64% Direction: 200° (SSW)
Pressure: 29.93in Gusts: 0mph
Raw Report DataKMKC 242254Z 20011KT 10SM CLR 24/17 A2993 RMK AO2 SLP130 T02390167
Traffic Incident Summary
Active as of:
Severity:
Category:
InformationThere was an issue retrieving the traffic information for this location. Please try a different location or try again shortly.
Advertisements
Track Severe Weather on mobile